createdAt,value
2022-10-02T00:00:59.810Z,15.50
2022-10-02T00:03:28.499Z,15.40
2022-10-02T00:06:02.654Z,15.30
2022-10-02T00:08:32.030Z,15.20
2022-10-02T00:11:07.339Z,15.30
2022-10-02T00:13:33.917Z,15.20
2022-10-02T00:16:01.877Z,15.20
2022-10-02T00:18:31.414Z,15.20
2022-10-02T00:20:58.015Z,15.10
2022-10-02T00:23:37.210Z,15.20
2022-10-02T00:26:19.371Z,15.20
2022-10-02T00:29:04.289Z,15.40
2022-10-02T00:31:30.898Z,15.60
2022-10-02T00:33:58.924Z,15.60
2022-10-02T00:36:25.642Z,15.50
2022-10-02T00:39:02.073Z,15.40
2022-10-02T00:41:37.790Z,15.30
2022-10-02T00:44:07.459Z,15.20
2022-10-02T00:46:45.282Z,15.10
2022-10-02T00:49:32.137Z,15.10
2022-10-02T00:52:10.793Z,15.10
2022-10-02T00:54:43.498Z,14.90
2022-10-02T00:57:13.549Z,14.70
2022-10-02T00:59:44.688Z,14.60
2022-10-02T01:02:31.418Z,14.50
2022-10-02T01:04:58.991Z,14.60
2022-10-02T01:07:27.801Z,14.40
2022-10-02T01:09:54.461Z,14.40
2022-10-02T01:12:21.578Z,14.40
2022-10-02T01:14:48.365Z,14.40
2022-10-02T01:17:23.057Z,14.40
2022-10-02T01:19:49.854Z,14.30
2022-10-02T01:22:25.508Z,14.40
2022-10-02T01:24:52.826Z,14.30
2022-10-02T01:27:19.427Z,14.30
2022-10-02T01:29:48.809Z,14.30
2022-10-02T01:32:15.677Z,14.20
2022-10-02T01:34:42.477Z,14.30
2022-10-02T01:37:09.527Z,14.30
2022-10-02T01:39:36.873Z,14.40
2022-10-02T01:42:03.726Z,14.40
2022-10-02T01:44:30.571Z,14.40
2022-10-02T01:47:09.453Z,14.40
2022-10-02T01:49:42.189Z,14.40
2022-10-02T01:52:08.728Z,14.50
2022-10-02T01:54:35.259Z,14.60
2022-10-02T01:57:04.907Z,14.60
2022-10-02T01:59:34.639Z,14.70
2022-10-02T02:02:16.602Z,14.70
2022-10-02T02:05:02.740Z,14.70
2022-10-02T02:07:39.657Z,14.80
2022-10-02T02:10:24.641Z,14.90
2022-10-02T02:12:57.427Z,14.90
2022-10-02T02:15:28.124Z,14.90
2022-10-02T02:17:57.498Z,15.00
2022-10-02T02:20:32.560Z,15.00
2022-10-02T02:23:03.689Z,15.00
2022-10-02T02:25:32.031Z,15.00
2022-10-02T02:28:01.544Z,15.00
2022-10-02T02:30:31.605Z,15.10
2022-10-02T02:33:01.986Z,15.10
2022-10-02T02:35:35.347Z,15.10
2022-10-02T02:38:04.278Z,15.10
2022-10-02T02:40:32.798Z,15.10
2022-10-02T02:43:06.837Z,15.10
2022-10-02T02:45:37.067Z,15.10
2022-10-02T02:48:42.366Z,15.10
2022-10-02T02:51:12.741Z,15.10
2022-10-02T02:53:45.147Z,15.00
2022-10-02T02:56:14.088Z,15.00
2022-10-02T02:58:43.554Z,15.00
2022-10-02T03:01:10.496Z,15.10
2022-10-02T03:03:37.246Z,15.10
2022-10-02T03:06:26.389Z,15.10
2022-10-02T03:08:53.632Z,15.10
2022-10-02T03:11:26.326Z,15.10
2022-10-02T03:13:55.862Z,15.00
2022-10-02T03:16:25.512Z,15.00
2022-10-02T03:19:02.509Z,15.10
2022-10-02T03:21:58.632Z,15.10
2022-10-02T03:24:46.798Z,15.20
2022-10-02T03:27:22.385Z,15.20
2022-10-02T03:29:55.524Z,15.20
2022-10-02T03:32:34.636Z,15.20
2022-10-02T03:35:02.606Z,15.10
2022-10-02T03:37:31.679Z,15.10
2022-10-02T03:40:00.224Z,15.20
2022-10-02T03:42:27.813Z,15.20
2022-10-02T03:44:54.404Z,15.30
2022-10-02T03:47:21.121Z,15.30
2022-10-02T03:49:47.767Z,15.40
2022-10-02T03:52:18.859Z,15.40
2022-10-02T03:54:45.663Z,15.30
2022-10-02T03:57:17.804Z,15.30
2022-10-02T03:59:54.499Z,15.40
2022-10-02T04:02:28.201Z,15.40
2022-10-02T04:05:26.652Z,15.40
2022-10-02T04:08:02.450Z,15.40
2022-10-02T04:10:38.475Z,15.30
2022-10-02T04:13:17.232Z,15.40
2022-10-02T04:16:19.314Z,15.40
2022-10-02T04:19:12.913Z,15.40
2022-10-02T04:21:44.930Z,15.50
2022-10-02T04:24:20.748Z,15.50
2022-10-02T04:27:03.124Z,15.40
2022-10-02T04:29:39.798Z,15.60
2022-10-02T04:32:24.548Z,15.50
2022-10-02T04:35:24.572Z,15.50
2022-10-02T04:38:15.310Z,15.60
2022-10-02T04:40:54.451Z,15.60
2022-10-02T04:43:37.843Z,15.50
2022-10-02T04:46:12.298Z,15.60
2022-10-02T04:49:00.252Z,15.60
2022-10-02T04:51:45.488Z,15.50
2022-10-02T04:54:40.804Z,15.50
2022-10-02T04:57:22.847Z,15.40
2022-10-02T05:00:12.905Z,15.30
2022-10-02T05:02:49.706Z,15.30
2022-10-02T05:05:43.459Z,15.20
2022-10-02T05:08:28.001Z,15.10
2022-10-02T05:11:17.782Z,15.30
2022-10-02T05:13:49.483Z,15.50
2022-10-02T05:16:38.986Z,15.50
2022-10-02T05:19:28.281Z,15.40
2022-10-02T05:22:02.552Z,15.20
2022-10-02T05:24:53.481Z,15.30
2022-10-02T05:30:32.965Z,15.20
2022-10-02T05:33:13.603Z,15.10
2022-10-02T05:36:09.644Z,15.10
2022-10-02T05:38:52.424Z,15.00
2022-10-02T05:41:30.914Z,15.00
2022-10-02T05:44:03.295Z,14.90
2022-10-02T05:46:37.678Z,14.90
2022-10-02T05:49:20.718Z,14.90
2022-10-02T05:52:07.107Z,14.90
2022-10-02T05:54:55.642Z,14.90
2022-10-02T05:57:55.880Z,14.90
2022-10-02T06:00:39.182Z,15.00
2022-10-02T06:03:38.859Z,15.00
2022-10-02T06:06:40.311Z,14.90
2022-10-02T06:12:52.904Z,15.00
2022-10-02T06:15:55.017Z,15.00
2022-10-02T06:18:45.815Z,15.00
2022-10-02T06:21:44.761Z,15.00
2022-10-02T06:33:36.714Z,15.00
2022-10-02T06:36:37.314Z,15.00
2022-10-02T06:39:38.752Z,15.10
2022-10-02T06:46:21.662Z,15.20
2022-10-02T06:50:28.879Z,15.30
2022-10-02T06:52:58.567Z,15.20
2022-10-02T06:58:46.178Z,15.10
2022-10-02T07:05:16.528Z,15.00
2022-10-02T07:07:58.397Z,15.00
2022-10-02T07:10:55.659Z,15.10
2022-10-02T07:13:39.938Z,15.00
2022-10-02T07:16:25.087Z,15.10
2022-10-02T07:19:22.483Z,15.00
2022-10-02T07:22:32.400Z,15.10
2022-10-02T07:25:19.219Z,15.10
2022-10-02T07:28:08.652Z,15.10
2022-10-02T07:30:54.996Z,15.10
2022-10-02T07:34:06.208Z,15.10
2022-10-02T07:36:47.178Z,15.10
2022-10-02T07:39:40.338Z,15.00
2022-10-02T07:42:49.375Z,15.00
2022-10-02T07:46:00.425Z,15.00
2022-10-02T07:48:56.618Z,15.10
2022-10-02T07:52:06.369Z,15.20
2022-10-02T07:58:12.328Z,15.40
2022-10-02T08:01:14.953Z,15.30
2022-10-02T08:04:15.710Z,15.30
2022-10-02T08:06:42.477Z,15.20
2022-10-02T08:09:21.380Z,15.20
2022-10-02T08:11:52.179Z,15.20
2022-10-02T08:14:31.326Z,15.20
2022-10-02T08:17:00.644Z,15.30
2022-10-02T08:19:35.448Z,15.30
2022-10-02T08:22:10.086Z,15.40
2022-10-02T08:24:38.859Z,15.40
2022-10-02T08:27:18.215Z,15.40
2022-10-02T08:29:53.163Z,15.50
2022-10-02T08:32:19.770Z,15.50
2022-10-02T08:34:47.176Z,15.50
2022-10-02T08:37:32.566Z,15.60
2022-10-02T08:39:59.322Z,15.60
2022-10-02T08:42:45.907Z,15.60
2022-10-02T08:45:34.932Z,15.70
2022-10-02T08:48:30.614Z,15.70
2022-10-02T08:51:17.796Z,15.70
2022-10-02T08:53:47.372Z,15.70
2022-10-02T08:56:20.179Z,15.70
2022-10-02T08:59:05.873Z,15.60
2022-10-02T09:01:51.295Z,15.60
2022-10-02T09:04:38.129Z,15.70
2022-10-02T09:07:28.177Z,15.80
2022-10-02T09:10:13.865Z,15.90
2022-10-02T09:12:59.316Z,15.90
2022-10-02T09:15:37.369Z,15.80
2022-10-02T09:18:03.894Z,15.70
2022-10-02T09:20:39.595Z,15.70
2022-10-02T09:23:26.205Z,15.70
2022-10-02T09:25:59.535Z,15.80
2022-10-02T09:28:46.708Z,15.80
2022-10-02T09:31:27.491Z,15.80
2022-10-02T09:34:12.598Z,15.80
2022-10-02T09:37:10.629Z,15.70
2022-10-02T09:39:51.594Z,15.70
2022-10-02T09:42:37.722Z,15.70
2022-10-02T09:45:24.389Z,15.60
2022-10-02T09:48:04.894Z,15.70
2022-10-02T09:50:50.030Z,15.70
2022-10-02T09:53:22.750Z,15.70
2022-10-02T09:56:08.145Z,15.60
2022-10-02T09:58:51.328Z,15.60
2022-10-02T10:01:19.206Z,15.60
2022-10-02T10:04:08.210Z,15.70
2022-10-02T10:06:55.065Z,15.70
2022-10-02T10:09:34.929Z,15.80
2022-10-02T10:12:28.823Z,15.90
2022-10-02T10:14:55.387Z,15.90
2022-10-02T10:17:41.890Z,15.90
2022-10-02T10:20:08.738Z,15.90
2022-10-02T10:22:46.025Z,15.90
2022-10-02T10:25:28.310Z,16.00
2022-10-02T10:28:10.328Z,16.10
2022-10-02T10:30:46.523Z,16.20
2022-10-02T10:33:25.479Z,16.20
2022-10-02T10:36:02.211Z,16.20
2022-10-02T10:38:58.139Z,16.20
2022-10-02T10:41:58.842Z,16.30
2022-10-02T10:44:54.056Z,16.40
2022-10-02T10:47:26.264Z,16.40
2022-10-02T10:50:10.856Z,16.40
2022-10-02T10:52:40.726Z,16.20
2022-10-02T10:55:37.146Z,16.10
2022-10-02T10:58:03.691Z,16.00
2022-10-02T11:00:51.635Z,16.00
2022-10-02T11:03:18.281Z,16.10
2022-10-02T11:05:58.325Z,16.10
2022-10-02T11:08:43.856Z,16.30
2022-10-02T11:11:19.693Z,16.60
2022-10-02T11:14:06.624Z,16.60
2022-10-02T11:16:45.337Z,16.70
2022-10-02T11:19:35.869Z,16.50
2022-10-02T11:22:22.689Z,16.50
2022-10-02T11:24:50.371Z,16.50
2022-10-02T11:27:34.034Z,16.60
2022-10-02T11:30:03.831Z,16.60
2022-10-02T11:32:51.181Z,16.50
2022-10-02T11:35:19.423Z,16.60
2022-10-02T11:37:55.670Z,16.60
2022-10-02T11:40:40.930Z,16.80
2022-10-02T11:43:13.711Z,16.90
2022-10-02T11:45:43.725Z,16.80
2022-10-02T11:48:31.998Z,16.80
2022-10-02T11:51:10.755Z,16.80
2022-10-02T11:53:45.519Z,16.80
2022-10-02T11:56:42.496Z,16.90
2022-10-02T11:59:33.585Z,16.90
2022-10-02T12:02:08.522Z,16.80
2022-10-02T12:04:40.751Z,16.70
2022-10-02T12:07:10.367Z,16.60
2022-10-02T12:09:43.317Z,16.70
2022-10-02T12:12:28.878Z,16.70
2022-10-02T12:15:18.041Z,16.70
2022-10-02T12:17:53.152Z,16.60
2022-10-02T12:20:47.098Z,16.70
2022-10-02T12:23:33.380Z,16.80
2022-10-02T12:26:26.358Z,16.80
2022-10-02T12:29:02.216Z,16.90
2022-10-02T12:31:51.034Z,17.10
2022-10-02T12:34:38.302Z,17.10
2022-10-02T12:37:06.100Z,17.10
2022-10-02T12:39:51.492Z,16.90
2022-10-02T12:42:21.430Z,16.90
2022-10-02T12:45:11.586Z,17.00
2022-10-02T12:47:47.349Z,16.80
2022-10-02T12:50:39.318Z,16.90
2022-10-02T12:53:15.506Z,17.00
2022-10-02T12:55:42.101Z,17.10
2022-10-02T12:58:13.429Z,17.10
2022-10-02T13:00:59.159Z,17.20
2022-10-02T13:03:31.771Z,17.20
2022-10-02T13:06:07.470Z,17.10
2022-10-02T13:08:57.740Z,17.10
2022-10-02T13:11:30.573Z,17.00
2022-10-02T13:14:00.481Z,16.90
2022-10-02T13:16:36.181Z,16.90
2022-10-02T13:19:18.169Z,16.90
2022-10-02T13:22:01.699Z,16.90
2022-10-02T13:24:48.297Z,16.90
2022-10-02T13:27:26.305Z,16.90
2022-10-02T13:30:03.911Z,16.90
2022-10-02T13:32:45.144Z,16.70
2022-10-02T13:35:19.824Z,16.70
2022-10-02T13:37:55.198Z,16.60
2022-10-02T13:40:37.053Z,16.50
2022-10-02T13:43:13.598Z,16.50
2022-10-02T13:45:50.680Z,16.50
2022-10-02T13:48:38.712Z,16.50
2022-10-02T13:51:19.260Z,16.50
2022-10-02T13:54:04.882Z,16.60
2022-10-02T13:56:50.628Z,16.60
2022-10-02T13:59:30.034Z,16.60
2022-10-02T14:02:00.051Z,16.70
2022-10-02T14:04:30.865Z,16.50
2022-10-02T14:07:01.688Z,16.40
2022-10-02T14:09:28.572Z,16.50
2022-10-02T14:12:01.715Z,16.50
2022-10-02T14:14:38.196Z,16.50
2022-10-02T14:17:10.399Z,16.50
2022-10-02T14:19:51.878Z,16.50
2022-10-02T14:22:18.996Z,16.40
2022-10-02T14:25:01.171Z,16.50
2022-10-02T14:27:37.233Z,16.50
2022-10-02T14:30:12.962Z,16.50
2022-10-02T14:33:00.340Z,16.50
2022-10-02T14:35:33.175Z,16.40
2022-10-02T14:38:18.801Z,16.40
2022-10-02T14:40:48.843Z,16.40
2022-10-02T14:43:33.648Z,16.40
2022-10-02T14:46:00.648Z,16.40
2022-10-02T14:48:46.417Z,16.30
2022-10-02T14:51:16.469Z,16.30
2022-10-02T14:53:59.431Z,16.20
2022-10-02T14:56:46.572Z,16.20
2022-10-02T14:59:13.481Z,16.10
2022-10-02T15:01:45.430Z,16.10
2022-10-02T15:04:25.045Z,16.10
2022-10-02T15:07:04.662Z,16.10
2022-10-02T15:09:50.713Z,16.00
2022-10-02T15:12:35.916Z,16.00
2022-10-02T15:15:07.857Z,16.00
2022-10-02T15:18:00.420Z,15.90
2022-10-02T15:20:46.036Z,15.90
2022-10-02T15:23:13.971Z,15.80
2022-10-02T15:25:53.699Z,15.80
2022-10-02T15:28:48.419Z,15.70
2022-10-02T15:31:27.413Z,15.60
2022-10-02T15:34:04.295Z,15.60
2022-10-02T15:36:37.291Z,15.60
2022-10-02T15:39:32.458Z,15.50
2022-10-02T15:42:02.365Z,15.50
2022-10-02T15:44:35.438Z,15.40
2022-10-02T15:47:34.069Z,15.50
2022-10-02T15:50:07.141Z,15.40
2022-10-02T15:52:43.228Z,15.40
2022-10-02T15:55:29.164Z,15.30
2022-10-02T15:57:59.194Z,15.30
2022-10-02T16:00:27.483Z,15.30
2022-10-02T16:02:57.614Z,15.30
2022-10-02T16:05:24.896Z,15.20
2022-10-02T16:07:55.122Z,15.20
2022-10-02T16:10:34.386Z,15.20
2022-10-02T16:13:21.054Z,15.20
2022-10-02T16:15:53.218Z,15.20
2022-10-02T16:18:23.322Z,15.20
2022-10-02T16:21:03.148Z,15.20
2022-10-02T16:23:39.412Z,15.20
2022-10-02T16:26:24.896Z,15.20
2022-10-02T16:28:54.927Z,15.10
2022-10-02T16:31:24.999Z,15.10
2022-10-02T16:33:55.062Z,15.10
2022-10-02T16:36:30.327Z,15.10
2022-10-02T16:39:15.995Z,15.10
2022-10-02T16:42:02.726Z,15.10
